Time;durP1;ratioP1;P1;durP2;ratioP2;P2;SDS_P1;SDS_P2;PMS_P1;PMS_P2;Temp;Humidity;BMP_temperature;BMP_pressure;BME280_temperature;BME280_humidity;BME280_pressure;Samples;Min_cycle;Max_cycle;Signal;HPM_P1;HPM_P2
2021/01/17 00:00:32;;;;;;;23.08;15.90;;;1.00;99.90;;;;;;5015448;28;20231;-83
2021/01/17 00:03:00;;;;;;;20.25;13.45;;;1.00;99.90;;;;;;5014018;28;20313;-83
2021/01/17 00:05:28;;;;;;;25.73;14.00;;;1.00;99.90;;;;;;5016006;28;20216;-82
2021/01/17 00:07:55;;;;;;;21.10;14.57;;;0.90;99.90;;;;;;5015322;28;20255;-83
2021/01/17 00:10:23;;;;;;;21.15;14.27;;;0.80;99.90;;;;;;5014619;28;20211;-83
2021/01/17 00:12:51;;;;;;;26.38;16.15;;;0.90;99.90;;;;;;5013930;28;20208;-83
2021/01/17 00:15:18;;;;;;;21.75;14.23;;;0.90;99.90;;;;;;5015516;28;20595;-83
2021/01/17 00:17:45;;;;;;;21.20;15.65;;;0.90;99.90;;;;;;5014819;28;20260;-86
2021/01/17 00:20:13;;;;;;;22.27;14.43;;;0.90;99.90;;;;;;5015193;28;20249;-82
2021/01/17 00:22:41;;;;;;;21.48;13.93;;;0.90;99.90;;;;;;5015055;28;20679;-83
2021/01/17 00:25:11;;;;;;;25.83;16.23;;;0.90;99.90;;;;;;5013667;28;20207;-83
2021/01/17 00:27:38;;;;;;;21.60;14.30;;;0.90;99.90;;;;;;5014642;28;20611;-83
2021/01/17 00:30:06;;;;;;;22.55;14.40;;;0.90;99.90;;;;;;5013572;28;20236;-83
2021/01/17 00:32:32;;;;;;;26.55;16.85;;;1.00;99.90;;;;;;5014173;28;20207;-83
2021/01/17 00:34:59;;;;;;;22.65;15.63;;;1.00;99.90;;;;;;5013643;28;20203;-83
2021/01/17 00:37:25;;;;;;;27.88;17.05;;;0.80;99.90;;;;;;5014573;28;20205;-83
2021/01/17 00:39:52;;;;;;;23.63;15.90;;;0.70;99.90;;;;;;5013308;28;20252;-84
2021/01/17 00:42:19;;;;;;;25.98;17.00;;;0.80;99.90;;;;;;5013720;28;20365;-83
2021/01/17 00:44:46;;;;;;;21.85;13.90;;;0.80;99.90;;;;;;5013308;28;20209;-84
2021/01/17 00:47:13;;;;;;;23.65;16.75;;;0.70;99.90;;;;;;5014208;28;20331;-83
2021/01/17 00:49:43;;;;;;;23.08;15.50;;;0.70;99.90;;;;;;5014011;28;20209;-83
2021/01/17 00:52:14;;;;;;;21.35;15.30;;;0.70;99.90;;;;;;5012838;28;20204;-84
2021/01/17 00:54:41;;;;;;;26.48;17.75;;;0.80;99.90;;;;;;5013764;28;20202;-83
2021/01/17 00:57:07;;;;;;;22.70;14.90;;;0.80;99.90;;;;;;5013040;28;20232;-83
2021/01/17 00:59:34;;;;;;;24.55;17.52;;;0.80;99.90;;;;;;5013042;28;20211;-83
2021/01/17 01:02:03;;;;;;;25.02;15.25;;;0.80;99.90;;;;;;5012716;28;20302;-83
2021/01/17 01:04:29;;;;;;;23.40;15.07;;;0.80;99.90;;;;;;5013646;28;20211;-83
2021/01/17 01:06:55;;;;;;;26.40;16.98;;;0.80;99.90;;;;;;5013264;28;20203;-83
2021/01/17 01:09:23;;;;;;;24.50;15.93;;;0.90;99.90;;;;;;5012532;28;20296;-83
2021/01/17 01:11:49;;;;;;;25.25;17.23;;;0.90;99.90;;;;;;5013660;28;20201;-85
2021/01/17 01:14:16;;;;;;;25.45;15.90;;;0.90;99.90;;;;;;5013303;28;20210;-83
2021/01/17 01:16:48;;;;;;;22.92;15.63;;;0.90;99.90;;;;;;5013604;28;20317;-83
2021/01/17 01:19:15;;;;;;;28.88;15.75;;;0.90;99.90;;;;;;5013352;28;20209;-83
2021/01/17 01:21:41;;;;;;;26.80;16.65;;;0.90;99.90;;;;;;5013499;28;20216;-83
2021/01/17 01:24:08;;;;;;;27.23;17.83;;;0.90;99.90;;;;;;5012654;28;20325;-83
2021/01/17 01:26:36;;;;;;;22.25;16.08;;;0.90;99.90;;;;;;5013261;28;20212;-83
2021/01/17 01:29:03;;;;;;;21.75;14.93;;;0.90;99.90;;;;;;5012755;28;20673;-83
2021/01/17 01:31:29;;;;;;;25.10;15.60;;;1.00;99.90;;;;;;5013559;28;20256;-83
2021/01/17 01:33:58;;;;;;;28.13;17.73;;;0.80;99.90;;;;;;5012794;28;20312;-83
2021/01/17 01:36:25;;;;;;;23.77;15.18;;;0.80;99.90;;;;;;5013267;28;20289;-82
2021/01/17 01:38:52;;;;;;;25.42;16.23;;;0.90;99.90;;;;;;5012776;28;20208;-83
2021/01/17 01:41:19;;;;;;;27.80;17.95;;;0.90;99.90;;;;;;5012712;28;20202;-83
2021/01/17 01:43:46;;;;;;;26.60;16.33;;;0.80;99.90;;;;;;5013679;28;20558;-83
2021/01/17 01:46:15;;;;;;;22.98;15.45;;;0.80;99.90;;;;;;5013054;28;20284;-82
2021/01/17 01:48:43;;;;;;;26.05;16.88;;;0.80;99.90;;;;;;5013821;28;20236;-83
2021/01/17 01:51:11;;;;;;;23.67;15.38;;;0.80;99.90;;;;;;5013035;28;20203;-83
2021/01/17 01:53:38;;;;;;;24.20;14.98;;;0.80;99.90;;;;;;5013825;28;20216;-83
2021/01/17 01:56:05;;;;;;;25.45;16.25;;;0.90;99.90;;;;;;5013059;28;20214;-83
2021/01/17 01:58:33;;;;;;;22.30;15.52;;;0.80;99.90;;;;;;5013725;28;20333;-83
2021/01/17 02:01:00;;;;;;;29.55;16.85;;;0.80;99.90;;;;;;5013013;28;20202;-83
2021/01/17 02:03:26;;;;;;;25.50;15.80;;;0.80;99.90;;;;;;5013470;28;20247;-83
2021/01/17 02:05:53;;;;;;;25.52;16.05;;;0.90;99.90;;;;;;5012120;28;20292;-85
2021/01/17 02:09:02;;;;;;;25.80;16.33;;;0.90;99.90;;;;;;5013351;28;20203;-82
2021/01/17 02:11:42;;;;;;;22.55;16.55;;;1.00;99.90;;;;;;4997556;28;20202;-83
2021/01/17 02:14:17;;;;;;;24.20;16.00;;;0.90;99.90;;;;;;5015198;28;20219;-83
2021/01/17 02:16:46;;;;;;;25.20;15.90;;;1.00;99.90;;;;;;5017238;28;20189;-83
2021/01/17 02:19:15;;;;;;;27.90;17.23;;;1.00;99.90;;;;;;5016409;28;20931;-83
2021/01/17 02:21:46;;;;;;;30.73;19.40;;;0.90;99.90;;;;;;5016813;28;20201;-83
2021/01/17 02:24:13;;;;;;;23.33;16.35;;;0.80;99.90;;;;;;5016612;28;20215;-83
2021/01/17 02:26:41;;;;;;;23.38;15.65;;;0.80;99.90;;;;;;5016180;28;20283;-83
2021/01/17 02:29:08;;;;;;;28.70;16.83;;;0.90;99.90;;;;;;5016256;28;20536;-83
2021/01/17 02:31:37;;;;;;;25.98;16.58;;;0.90;99.90;;;;;;5017187;28;20210;-83
2021/01/17 02:34:04;;;;;;;27.25;17.92;;;0.80;99.90;;;;;;5015855;28;20220;-83
2021/01/17 02:36:42;;;;;;;31.13;18.35;;;0.90;99.90;;;;;;5018998;28;20210;-81
2021/01/17 02:39:14;;;;;;;22.90;16.83;;;0.90;99.90;;;;;;5020748;28;20581;-83
2021/01/17 02:41:55;;;;;;;23.33;15.40;;;0.90;99.90;;;;;;5016550;28;20263;-83
2021/01/17 02:44:23;;;;;;;27.52;15.90;;;0.90;99.90;;;;;;5016592;28;20263;-83
2021/01/17 02:46:49;;;;;;;28.20;17.30;;;0.90;99.90;;;;;;5015859;28;20240;-83
2021/01/17 02:49:16;;;;;;;22.27;14.88;;;1.00;99.90;;;;;;5015441;28;20216;-83
2021/01/17 02:51:42;;;;;;;26.85;16.25;;;1.00;99.90;;;;;;5016156;28;20202;-83
2021/01/17 02:54:11;;;;;;;24.38;16.13;;;1.00;99.90;;;;;;5014557;28;20213;-84
2021/01/17 02:56:42;;;;;;;24.75;16.65;;;1.10;99.90;;;;;;5015329;28;20241;-84
2021/01/17 02:59:13;;;;;;;27.27;17.13;;;1.00;99.90;;;;;;5015141;28;20198;-84
2021/01/17 03:01:44;;;;;;;22.85;15.52;;;1.00;99.90;;;;;;5015713;28;20194;-83
2021/01/17 03:04:15;;;;;;;24.88;16.50;;;1.10;99.90;;;;;;5014879;28;20337;-84
2021/01/17 03:06:43;;;;;;;29.00;18.08;;;1.10;99.90;;;;;;5015227;28;20195;-84
2021/01/17 03:09:11;;;;;;;25.38;17.20;;;1.10;99.90;;;;;;5014264;28;20217;-84
2021/01/17 03:11:37;;;;;;;24.75;16.70;;;1.00;99.90;;;;;;4996132;28;20209;-84
2021/01/17 03:14:06;;;;;;;31.48;19.15;;;1.00;99.90;;;;;;4995563;28;20693;-84
2021/01/17 03:16:34;;;;;;;24.20;17.25;;;1.00;99.90;;;;;;4995633;28;20711;-84
2021/01/17 03:19:00;;;;;;;29.75;18.60;;;1.00;99.90;;;;;;4994998;28;20293;-84
2021/01/17 03:21:27;;;;;;;25.42;17.38;;;1.00;99.90;;;;;;5011079;28;20256;-84
2021/01/17 03:23:53;;;;;;;24.77;16.95;;;1.00;99.90;;;;;;5014874;28;20230;-85
2021/01/17 03:26:19;;;;;;;23.33;17.08;;;1.00;99.90;;;;;;5013304;28;20714;-84
2021/01/17 03:28:46;;;;;;;24.65;16.08;;;0.90;99.90;;;;;;5014838;28;20214;-83
2021/01/17 03:31:12;;;;;;;27.58;17.25;;;0.90;99.90;;;;;;5013996;28;20243;-84
2021/01/17 03:33:39;;;;;;;27.08;16.95;;;0.80;99.90;;;;;;5015209;28;20216;-84
2021/01/17 03:36:06;;;;;;;25.02;16.67;;;0.90;99.90;;;;;;5014166;28;20212;-84
2021/01/17 03:38:32;;;;;;;23.30;15.45;;;1.00;99.90;;;;;;5014448;28;20213;-84
2021/01/17 03:40:58;;;;;;;28.10;16.33;;;1.10;99.90;;;;;;5013879;28;20198;-85
2021/01/17 03:43:25;;;;;;;24.58;16.35;;;1.20;99.90;;;;;;5014780;28;20225;-83
2021/01/17 03:45:51;;;;;;;22.48;14.70;;;1.20;99.90;;;;;;5014687;28;20241;-83
2021/01/17 03:48:17;;;;;;;24.70;15.88;;;1.20;99.90;;;;;;5013414;28;20674;-84
2021/01/17 03:50:45;;;;;;;23.38;14.73;;;1.20;99.90;;;;;;5014355;28;20307;-84
2021/01/17 03:53:11;;;;;;;23.80;16.80;;;1.10;99.90;;;;;;5013856;28;20209;-84
2021/01/17 03:55:37;;;;;;;26.15;16.63;;;1.10;99.90;;;;;;5014761;28;20200;-83
2021/01/17 03:58:03;;;;;;;25.23;16.95;;;0.90;99.90;;;;;;5013691;28;20209;-83
2021/01/17 04:00:30;;;;;;;26.42;16.77;;;1.00;99.90;;;;;;5013579;28;20286;-84
2021/01/17 04:02:56;;;;;;;26.25;16.80;;;1.00;99.90;;;;;;5013489;28;20268;-85
2021/01/17 04:05:22;;;;;;;29.90;18.08;;;1.10;99.90;;;;;;5014261;28;20246;-83
2021/01/17 04:07:50;;;;;;;30.42;18.20;;;0.90;99.90;;;;;;5014211;28;20646;-83
2021/01/17 04:10:16;;;;;;;29.55;18.98;;;0.90;99.90;;;;;;5012517;28;20471;-83
2021/01/17 04:12:42;;;;;;;25.30;16.33;;;1.00;99.90;;;;;;5014361;28;20213;-83
2021/01/17 04:15:10;;;;;;;25.55;17.02;;;1.00;99.90;;;;;;5013566;28;20204;-83
2021/01/17 04:17:36;;;;;;;28.55;17.40;;;1.00;99.90;;;;;;5014447;28;20214;-83
2021/01/17 04:20:03;;;;;;;26.52;16.67;;;1.10;99.90;;;;;;5012989;28;20262;-84
2021/01/17 04:22:30;;;;;;;27.17;18.52;;;1.10;99.90;;;;;;5014075;28;20232;-83
2021/01/17 04:24:57;;;;;;;27.27;18.20;;;1.00;99.90;;;;;;5013729;28;20312;-86
2021/01/17 04:27:23;;;;;;;28.20;18.70;;;1.00;99.90;;;;;;5013952;28;20206;-83
2021/01/17 04:29:50;;;;;;;26.90;17.17;;;1.00;99.90;;;;;;5013718;28;20957;-83
2021/01/17 04:32:16;;;;;;;36.13;18.80;;;1.10;99.90;;;;;;5013143;28;20205;-83
2021/01/17 04:34:42;;;;;;;32.67;20.77;;;1.00;99.90;;;;;;5013693;28;20206;-83
2021/01/17 04:37:09;;;;;;;31.45;17.85;;;1.00;99.90;;;;;;5012903;28;20206;-83
2021/01/17 04:39:35;;;;;;;31.33;19.20;;;0.90;99.90;;;;;;5013827;28;20633;-83
2021/01/17 04:42:03;;;;;;;34.88;18.83;;;1.00;99.90;;;;;;5012599;28;20298;-84
2021/01/17 04:44:34;;;;;;;29.38;18.10;;;1.10;99.90;;;;;;5013615;28;20221;-83
2021/01/17 04:47:04;;;;;;;28.27;18.20;;;1.10;99.90;;;;;;5013076;28;20205;-85
2021/01/17 04:49:35;;;;;;;30.35;18.30;;;1.10;99.90;;;;;;5013302;28;20534;-83
2021/01/17 04:52:02;;;;;;;32.58;18.65;;;1.00;99.90;;;;;;5012685;28;20309;-84
2021/01/17 04:54:29;;;;;;;30.05;19.02;;;1.00;99.90;;;;;;5012529;28;20221;-83
2021/01/17 04:57:00;;;;;;;30.98;17.50;;;0.90;99.90;;;;;;5013496;28;20259;-83
2021/01/17 04:59:36;;;;;;;30.73;18.58;;;1.00;99.90;;;;;;4993500;28;20195;-83
2021/01/17 05:02:23;;;;;;;36.78;21.10;;;1.00;99.90;;;;;;4993211;28;20549;-84
2021/01/17 05:05:21;;;;;;;30.73;18.70;;;1.10;99.90;;;;;;4993625;28;20214;-83
2021/01/17 05:08:03;;;;;;;30.42;19.08;;;1.10;99.90;;;;;;4997424;28;20191;-83
2021/01/17 05:10:35;;;;;;;28.23;17.80;;;1.10;99.90;;;;;;5013185;28;20201;-83
2021/01/17 05:13:12;;;;;;;29.10;18.80;;;1.10;99.90;;;;;;5012420;28;20211;-85
2021/01/17 05:15:42;;;;;;;33.63;20.27;;;1.20;99.90;;;;;;5013101;28;20633;-83
2021/01/17 05:18:09;;;;;;;28.15;18.15;;;1.10;99.90;;;;;;5012246;28;20207;-83
2021/01/17 05:20:35;;;;;;;33.80;21.58;;;1.20;99.90;;;;;;5013055;28;20195;-83
2021/01/17 05:23:02;;;;;;;34.60;20.58;;;1.10;99.90;;;;;;5012578;28;20240;-85
2021/01/17 05:25:29;;;;;;;36.88;22.30;;;1.10;99.90;;;;;;5013293;28;20203;-84
2021/01/17 05:27:58;;;;;;;37.83;21.30;;;1.20;99.90;;;;;;5013460;28;20213;-83
2021/01/17 05:30:25;;;;;;;35.00;21.08;;;1.10;99.90;;;;;;5012186;28;20202;-83
2021/01/17 05:32:54;;;;;;;40.35;22.50;;;1.00;99.90;;;;;;5013353;28;20215;-84
2021/01/17 05:35:22;;;;;;;38.00;21.25;;;1.00;99.90;;;;;;5012496;28;20205;-83
2021/01/17 05:37:50;;;;;;;33.40;18.90;;;1.00;99.90;;;;;;5012756;28;20646;-83
2021/01/17 05:40:18;;;;;;;35.08;19.98;;;1.10;99.90;;;;;;5012506;28;20203;-83
2021/01/17 05:42:45;;;;;;;36.22;21.90;;;1.10;99.90;;;;;;5013107;28;20365;-82
2021/01/17 05:45:14;;;;;;;38.25;21.10;;;1.20;99.90;;;;;;5011942;28;20328;-83
2021/01/17 05:47:41;;;;;;;41.90;22.27;;;1.10;99.90;;;;;;5013018;28;20270;-83
2021/01/17 05:50:11;;;;;;;37.38;23.00;;;1.00;99.90;;;;;;5015492;28;20209;-83
2021/01/17 05:52:37;;;;;;;43.10;24.13;;;1.10;99.90;;;;;;5016928;28;20232;-83
2021/01/17 05:55:05;;;;;;;36.33;20.83;;;1.10;99.90;;;;;;5015740;28;20251;-84
2021/01/17 05:57:32;;;;;;;33.83;19.58;;;1.00;99.90;;;;;;5016884;28;20207;-84
2021/01/17 06:00:00;;;;;;;39.28;21.95;;;1.10;99.90;;;;;;5016296;28;20213;-83
2021/01/17 06:02:27;;;;;;;40.22;23.77;;;1.10;99.90;;;;;;5016065;28;20209;-83
2021/01/17 06:04:56;;;;;;;43.20;22.70;;;1.10;99.90;;;;;;5016215;28;20274;-83
2021/01/17 06:07:25;;;;;;;41.60;24.40;;;1.10;99.90;;;;;;5015583;28;20208;-83
2021/01/17 06:09:59;;;;;;;41.75;23.67;;;1.00;99.90;;;;;;5016133;28;20328;-83
2021/01/17 06:12:33;;;;;;;38.05;21.92;;;1.00;99.90;;;;;;5015858;28;20214;-84
2021/01/17 06:15:08;;;;;;;40.28;19.70;;;1.00;99.90;;;;;;5016381;28;20268;-83
2021/01/17 06:17:37;;;;;;;41.10;23.55;;;1.10;99.90;;;;;;5016462;28;20605;-83
2021/01/17 06:20:05;;;;;;;41.08;22.67;;;1.10;99.90;;;;;;5015899;28;20236;-86
2021/01/17 06:22:33;;;;;;;44.85;24.35;;;1.10;99.90;;;;;;5016077;28;20198;-83
2021/01/17 06:25:00;;;;;;;40.08;23.25;;;1.00;99.90;;;;;;5015950;28;20598;-83
2021/01/17 06:27:28;;;;;;;41.75;23.00;;;1.20;99.90;;;;;;5015274;28;20195;-82
2021/01/17 06:29:55;;;;;;;38.30;21.95;;;1.20;99.90;;;;;;5016344;28;20285;-83
2021/01/17 06:32:23;;;;;;;44.03;23.23;;;1.10;99.90;;;;;;5015267;28;20206;-83
2021/01/17 06:34:51;;;;;;;50.88;25.65;;;1.00;99.90;;;;;;5015535;28;20209;-83
2021/01/17 06:37:19;;;;;;;39.92;20.52;;;1.00;99.90;;;;;;5015391;28;20216;-83
2021/01/17 06:39:49;;;;;;;45.65;22.83;;;1.00;99.90;;;;;;5015424;28;20638;-83
2021/01/17 06:42:17;;;;;;;36.65;21.92;;;1.10;99.90;;;;;;5014960;28;20221;-84
2021/01/17 06:44:45;;;;;;;39.23;21.63;;;1.20;99.90;;;;;;5015694;28;20227;-83
2021/01/17 06:47:16;;;;;;;35.75;20.98;;;1.30;99.90;;;;;;5014461;28;20448;-84
2021/01/17 06:49:46;;;;;;;39.40;21.88;;;1.30;99.90;;;;;;5014455;28;20547;-82
2021/01/17 06:52:14;;;;;;;37.92;22.35;;;1.30;99.90;;;;;;4996176;28;20647;-83
2021/01/17 06:54:42;;;;;;;40.10;22.55;;;1.30;99.90;;;;;;4996955;28;20210;-82
2021/01/17 06:57:10;;;;;;;41.33;22.30;;;1.40;99.90;;;;;;4995988;28;20206;-83
2021/01/17 06:59:42;;;;;;;41.55;22.05;;;1.40;99.90;;;;;;4996598;28;20217;-82
2021/01/17 07:02:39;;;;;;;37.28;22.02;;;1.30;99.90;;;;;;5014576;28;20644;-83
2021/01/17 07:05:31;;;;;;;39.85;21.92;;;1.30;99.90;;;;;;5015468;28;20232;-87
2021/01/17 07:08:20;;;;;;;42.17;24.27;;;1.40;99.90;;;;;;5016381;28;20191;-82
2021/01/17 07:10:52;;;;;;;40.55;21.33;;;1.40;99.90;;;;;;4982850;28;20220;-82
2021/01/17 07:13:33;;;;;;;36.53;21.33;;;1.30;99.90;;;;;;5015390;28;20209;-83
2021/01/17 07:16:06;;;;;;;38.50;20.52;;;1.40;99.90;;;;;;5015547;28;20194;-81
2021/01/17 07:18:36;;;;;;;39.85;23.48;;;1.40;99.90;;;;;;5016179;28;20224;-81
2021/01/17 07:21:04;;;;;;;43.13;22.20;;;1.40;99.90;;;;;;5016157;28;20219;-83
2021/01/17 07:23:32;;;;;;;52.53;25.45;;;1.40;99.90;;;;;;5014980;28;20220;-83
2021/01/17 07:26:01;;;;;;;49.10;24.67;;;1.30;99.90;;;;;;5015441;28;20211;-82
2021/01/17 07:28:32;;;;;;;40.35;23.10;;;1.30;99.90;;;;;;5014878;28;20450;-82
2021/01/17 07:31:08;;;;;;;37.50;21.83;;;1.30;99.90;;;;;;5016513;28;20194;-82
2021/01/17 07:33:36;;;;;;;42.03;22.88;;;1.40;99.90;;;;;;5016159;28;20194;-84
2021/01/17 07:36:04;;;;;;;40.88;23.17;;;1.50;99.90;;;;;;5015494;28;20629;-82
2021/01/17 07:38:32;;;;;;;51.45;23.67;;;1.50;99.90;;;;;;5014983;28;20221;-82
2021/01/17 07:41:01;;;;;;;42.22;22.10;;;1.40;99.90;;;;;;5015659;28;20285;-81
2021/01/17 07:43:33;;;;;;;38.70;21.55;;;1.50;99.90;;;;;;5014658;28;20588;-80
2021/01/17 07:46:01;;;;;;;41.13;22.93;;;1.60;99.90;;;;;;5014558;28;20226;-81
2021/01/17 07:48:28;;;;;;;48.45;24.75;;;1.60;99.90;;;;;;5014405;28;20464;-81
2021/01/17 07:50:56;;;;;;;50.42;24.83;;;1.50;99.90;;;;;;5014796;28;20202;-81
2021/01/17 07:53:48;;;;;;;44.08;22.40;;;1.50;99.90;;;;;;5013938;28;20297;-82
2021/01/17 07:56:16;;;;;;;55.00;26.80;;;1.50;99.90;;;;;;5021214;28;20210;-83
2021/01/17 07:58:45;;;;;;;42.45;22.23;;;1.40;99.90;;;;;;5015226;28;20304;-81
2021/01/17 08:01:45;;;;;;;53.93;24.20;;;1.30;99.90;;;;;;5014069;28;20217;-81
2021/01/17 08:04:30;;;;;;;53.67;25.50;;;1.30;99.90;;;;;;5013756;28;20485;-81
2021/01/17 08:06:58;;;;;;;56.35;28.23;;;1.20;99.90;;;;;;5015331;28;20521;-82
2021/01/17 08:09:48;;;;;;;49.80;23.42;;;1.20;99.90;;;;;;5014087;28;20204;-82
2021/01/17 08:12:31;;;;;;;47.60;23.90;;;1.30;99.90;;;;;;5013728;28;20195;-82
2021/01/17 08:15:18;;;;;;;46.50;25.20;;;1.40;99.90;;;;;;5014639;28;20205;-82
2021/01/17 08:17:45;;;;;;;48.43;23.47;;;1.40;99.90;;;;;;5014635;28;20468;-81
2021/01/17 08:20:21;;;;;;;53.10;26.17;;;1.50;99.90;;;;;;5013885;28;20460;-82
2021/01/17 08:22:47;;;;;;;47.03;25.65;;;1.40;99.90;;;;;;5014561;28;20445;-81
2021/01/17 08:25:36;;;;;;;52.80;24.88;;;1.40;99.90;;;;;;5013708;28;20277;-82
2021/01/17 08:28:39;;;;;;;54.03;27.33;;;1.50;99.90;;;;;;5014509;28;20203;-81
2021/01/17 08:31:33;;;;;;;40.17;21.43;;;1.50;99.90;;;;;;5014475;28;20619;-81
2021/01/17 08:34:24;;;;;;;46.80;22.83;;;1.50;99.90;;;;;;5007287;28;20781;-81
2021/01/17 08:36:50;;;;;;;44.47;22.23;;;1.60;99.90;;;;;;5014428;28;20498;-81
2021/01/17 08:39:42;;;;;;;50.40;24.67;;;1.60;99.90;;;;;;5013367;28;20202;-82
2021/01/17 08:42:31;;;;;;;47.57;21.80;;;1.60;99.90;;;;;;5014043;28;20438;-86
2021/01/17 08:44:58;;;;;;;54.20;27.40;;;1.60;99.90;;;;;;5013605;28;20496;-82
2021/01/17 08:47:26;;;;;;;50.72;26.25;;;1.50;99.90;;;;;;5013562;28;20204;-81
2021/01/17 08:49:53;;;;;;;46.20;24.10;;;1.60;99.90;;;;;;5014100;28;20206;-82
2021/01/17 08:52:41;;;;;;;40.83;21.43;;;1.60;99.90;;;;;;5013435;28;20673;-81
2021/01/17 08:58:48;;;;;;;44.50;24.03;;;1.80;99.90;;;;;;4986946;28;20445;-82
2021/01/17 09:01:15;;;;;;;42.13;22.10;;;1.90;99.90;;;;;;5013570;28;20454;-83
2021/01/17 09:03:57;;;;;;;45.33;24.00;;;2.00;99.90;;;;;;5013272;28;20480;-85
2021/01/17 09:06:29;;;;;;;43.83;24.60;;;2.20;99.90;;;;;;5012385;28;20928;-83
2021/01/17 09:09:13;;;;;;;49.40;21.13;;;2.20;99.90;;;;;;5013834;28;21027;-83
2021/01/17 09:11:40;;;;;;;46.60;23.47;;;2.30;99.90;;;;;;5014383;28;20438;-83
2021/01/17 09:14:25;;;;;;;45.13;23.60;;;2.20;99.90;;;;;;5014162;28;20460;-83
2021/01/17 09:16:54;;;;;;;40.70;22.20;;;2.20;99.90;;;;;;5013468;28;20446;-83
2021/01/17 09:19:23;;;;;;;35.80;20.90;;;2.30;99.90;;;;;;5013404;28;20446;-84
2021/01/17 09:21:51;;;;;;;45.93;24.03;;;2.30;99.90;;;;;;5013641;28;20513;-83
2021/01/17 09:24:19;;;;;;;39.53;21.97;;;2.30;99.90;;;;;;5015859;28;20873;-83
2021/01/17 09:26:47;;;;;;;43.53;22.67;;;2.30;99.90;;;;;;5017597;28;20496;-83
2021/01/17 09:29:31;;;;;;;31.80;19.43;;;2.40;99.90;;;;;;5017608;28;20457;-87
2021/01/17 09:32:09;;;;;;;37.77;20.37;;;2.50;99.90;;;;;;5017449;28;20891;-83
2021/01/17 09:34:37;;;;;;;41.90;20.40;;;2.50;99.90;;;;;;5017591;28;20442;-83
2021/01/17 09:37:10;;;;;;;38.70;21.10;;;2.60;99.90;;;;;;5017928;28;20460;-83
2021/01/17 09:39:42;;;;;;;36.43;19.70;;;2.60;99.90;;;;;;5017381;28;20434;-83
2021/01/17 09:42:10;;;;;;;33.53;20.10;;;2.60;99.90;;;;;;5017607;28;20484;-83
2021/01/17 09:44:38;;;;;;;31.20;18.60;;;2.60;99.90;;;;;;5016554;28;20490;-84
2021/01/17 09:47:13;;;;;;;35.67;20.40;;;2.70;99.90;;;;;;5017293;28;20440;-83
2021/01/17 09:49:40;;;;;;;40.20;20.50;;;2.80;99.90;;;;;;5017816;28;20439;-83
2021/01/17 09:52:11;;;;;;;32.93;19.70;;;2.70;99.90;;;;;;5017410;28;20529;-83
2021/01/17 09:54:38;;;;;;;36.40;20.40;;;2.80;99.90;;;;;;5016948;28;20845;-83
2021/01/17 09:57:16;;;;;;;36.17;19.20;;;2.90;99.90;;;;;;5016847;28;20948;-83
2021/01/17 09:59:43;;;;;;;34.23;18.37;;;2.90;99.90;;;;;;5018275;28;20419;-83
2021/01/17 10:02:10;;;;;;;38.73;21.63;;;2.90;99.90;;;;;;5017133;28;20450;-82
2021/01/17 10:04:37;;;;;;;38.27;21.70;;;2.80;99.90;;;;;;5016472;28;20482;-83
2021/01/17 10:07:04;;;;;;;35.43;19.70;;;2.60;99.90;;;;;;5014200;28;20498;-83
2021/01/17 10:09:31;;;;;;;32.83;19.60;;;2.70;99.90;;;;;;5015632;28;20858;-83
2021/01/17 10:11:59;;;;;;;32.63;18.30;;;2.90;99.90;;;;;;5018296;28;20438;-82
2021/01/17 10:14:28;;;;;;;33.77;18.30;;;3.00;99.90;;;;;;5016064;28;20450;-83
2021/01/17 10:17:01;;;;;;;34.17;18.17;;;3.00;99.90;;;;;;5016719;28;20472;-82
2021/01/17 10:19:29;;;;;;;32.33;17.63;;;3.00;99.90;;;;;;5016630;28;20442;-83
2021/01/17 10:21:57;;;;;;;33.37;19.60;;;3.00;99.90;;;;;;5016572;28;20530;-83
2021/01/17 10:24:26;;;;;;;44.70;22.83;;;3.00;99.90;;;;;;5015671;28;20485;-83
2021/01/17 10:29:40;;;;;;;28.23;17.70;;;2.80;99.90;;;;;;5015906;28;20430;-82
2021/01/17 10:32:09;;;;;;;34.07;19.27;;;3.00;99.90;;;;;;5015768;28;20447;-83
2021/01/17 10:34:39;;;;;;;35.57;18.57;;;3.20;99.90;;;;;;5015523;28;20887;-83
2021/01/17 10:37:07;;;;;;;34.63;18.93;;;3.20;99.90;;;;;;5016514;28;20460;-83
2021/01/17 10:39:38;;;;;;;29.00;17.60;;;3.40;99.90;;;;;;5015912;28;20453;-82
2021/01/17 10:42:07;;;;;;;31.83;18.40;;;3.50;99.90;;;;;;5016709;28;20572;-82
2021/01/17 10:44:41;;;;;;;30.70;18.33;;;3.60;99.90;;;;;;5016002;28;20678;-82
2021/01/17 10:47:13;;;;;;;34.63;21.47;;;3.70;99.90;;;;;;5016749;28;20442;-82
2021/01/17 10:49:46;;;;;;;29.10;17.90;;;3.70;99.90;;;;;;5015784;28;20437;-82
2021/01/17 10:52:21;;;;;;;29.97;18.90;;;3.80;99.90;;;;;;5016531;28;20529;-82
2021/01/17 10:54:52;;;;;;;30.67;18.90;;;3.70;99.90;;;;;;5016723;28;20492;-82
2021/01/17 10:57:20;;;;;;;26.60;17.10;;;3.70;99.90;;;;;;5015614;28;20967;-84
2021/01/17 10:59:47;;;;;;;31.80;17.90;;;3.90;99.90;;;;;;5014352;28;20448;-82
2021/01/17 11:02:24;;;;;;;25.37;16.17;;;4.00;99.90;;;;;;5013333;28;20929;-83
2021/01/17 11:04:51;;;;;;;28.27;17.70;;;4.00;99.90;;;;;;5015794;28;20497;-82
2021/01/17 11:07:20;;;;;;;29.33;18.13;;;3.70;99.90;;;;;;5014178;28;20465;-87
2021/01/17 11:09:47;;;;;;;40.83;21.50;;;3.70;99.90;;;;;;5015199;28;20473;-82
2021/01/17 11:12:14;;;;;;;29.00;18.97;;;3.40;99.90;;;;;;5015687;28;20461;-82
2021/01/17 11:14:40;;;;;;;34.87;18.50;;;3.40;99.90;;;;;;5015456;28;20465;-83
2021/01/17 11:17:07;;;;;;;38.63;22.67;;;3.30;99.90;;;;;;5015282;28;20940;-83
2021/01/17 11:19:36;;;;;;;36.63;20.53;;;3.30;99.90;;;;;;5015034;28;20554;-83
2021/01/17 11:22:02;;;;;;;29.70;18.97;;;3.30;99.90;;;;;;5014883;28;20537;-83
2021/01/17 11:24:36;;;;;;;31.13;18.27;;;3.50;99.90;;;;;;5015105;28;20491;-83
2021/01/17 11:27:13;;;;;;;36.23;19.53;;;3.50;99.90;;;;;;5014050;28;20542;-84
2021/01/17 11:29:41;;;;;;;32.80;18.77;;;3.40;99.90;;;;;;5011951;28;20456;-84
2021/01/17 11:32:08;;;;;;;34.53;20.10;;;3.50;99.90;;;;;;5014635;28;20489;-84
2021/01/17 11:34:39;;;;;;;32.97;17.97;;;3.50;99.90;;;;;;5014640;28;20557;-84
2021/01/17 11:37:07;;;;;;;36.53;20.37;;;3.50;99.90;;;;;;5014576;28;20446;-83
2021/01/17 11:39:33;;;;;;;35.00;19.60;;;3.70;99.90;;;;;;5013998;28;20496;-83
2021/01/17 11:42:00;;;;;;;36.37;20.47;;;3.50;99.90;;;;;;5014623;28;20530;-83
2021/01/17 11:44:32;;;;;;;33.23;19.43;;;3.40;99.90;;;;;;5014580;28;20536;-84
2021/01/17 11:47:00;;;;;;;32.63;18.27;;;3.50;99.90;;;;;;5014102;28;20472;-83
2021/01/17 11:49:28;;;;;;;30.10;18.77;;;3.50;99.90;;;;;;5014520;28;20454;-83
2021/01/17 11:52:12;;;;;;;29.10;16.93;;;3.60;99.90;;;;;;5015222;28;20454;-83
2021/01/17 11:54:38;;;;;;;34.87;19.67;;;3.60;99.90;;;;;;5011507;28;20569;-83
2021/01/17 11:57:07;;;;;;;29.27;18.30;;;3.70;99.90;;;;;;5013426;28;20456;-83
2021/01/17 11:59:35;;;;;;;32.63;18.77;;;3.80;99.90;;;;;;5020487;28;20925;-82
2021/01/17 12:02:19;;;;;;;28.80;17.00;;;3.60;99.90;;;;;;5033047;28;20542;-84
2021/01/17 12:04:47;;;;;;;27.73;17.20;;;3.70;99.90;;;;;;5014747;28;20510;-83
2021/01/17 12:07:13;;;;;;;31.03;19.10;;;3.70;99.90;;;;;;5014752;28;20558;-84
2021/01/17 12:09:40;;;;;;;31.33;17.83;;;3.70;99.90;;;;;;5011515;28;20681;-85
2021/01/17 12:12:11;;;;;;;32.87;17.40;;;3.80;99.90;;;;;;5013232;28;20939;-83
2021/01/17 12:14:38;;;;;;;31.30;18.03;;;3.70;99.90;;;;;;5013346;28;20538;-84
2021/01/17 12:17:06;;;;;;;27.20;17.30;;;3.90;99.90;;;;;;5014650;28;20473;-84
2021/01/17 12:19:32;;;;;;;29.53;17.23;;;3.90;99.90;;;;;;5014428;28;20462;-84
2021/01/17 12:22:00;;;;;;;25.73;16.97;;;3.90;99.90;;;;;;5014059;28;20466;-82
2021/01/17 12:24:27;;;;;;;30.80;19.50;;;4.00;99.90;;;;;;5013778;28;20487;-82
2021/01/17 12:26:55;;;;;;;26.37;16.90;;;4.10;99.90;;;;;;5019205;28;20451;-82
2021/01/17 12:29:22;;;;;;;32.20;17.70;;;4.00;99.90;;;;;;5026358;28;20531;-82
2021/01/17 12:31:51;;;;;;;35.93;19.90;;;4.00;99.90;;;;;;5013934;28;20442;-82
2021/01/17 12:34:17;;;;;;;32.07;20.40;;;4.00;99.90;;;;;;5014339;28;20558;-85
2021/01/17 12:36:45;;;;;;;28.57;18.10;;;4.00;99.90;;;;;;5014111;28;20435;-82
2021/01/17 12:39:15;;;;;;;33.20;18.10;;;4.10;99.90;;;;;;5014908;28;20456;-82
2021/01/17 12:41:44;;;;;;;28.93;16.60;;;4.00;99.90;;;;;;5014476;28;20897;-82
2021/01/17 12:44:12;;;;;;;39.00;20.30;;;3.90;99.90;;;;;;5014386;28;20528;-82
2021/01/17 12:46:38;;;;;;;39.97;18.67;;;3.90;99.90;;;;;;5014674;28;20866;-83
2021/01/17 12:49:05;;;;;;;31.37;17.50;;;3.80;99.90;;;;;;5015443;28;20459;-82
2021/01/17 12:51:32;;;;;;;41.73;21.30;;;3.80;99.90;;;;;;5017549;28;20519;-82
2021/01/17 12:53:58;;;;;;;45.60;21.90;;;3.70;99.90;;;;;;5036957;28;20457;-82
2021/01/17 12:56:25;;;;;;;38.40;20.07;;;3.60;99.90;;;;;;5035447;28;20935;-83